createdAt,value
2023-01-25T00:05:22.843Z,90.41
2023-01-25T00:20:22.702Z,90.09
2023-01-25T00:35:22.569Z,89.78
2023-01-25T00:50:22.424Z,91.66
2023-01-25T01:05:22.273Z,92.40
2023-01-25T01:20:22.119Z,91.77
2023-01-25T01:35:21.976Z,92.19
2023-01-25T01:50:22.854Z,92.29
2023-01-25T02:05:21.691Z,91.03
2023-01-25T02:20:21.543Z,91.62
2023-01-25T02:35:22.448Z,90.72
2023-01-25T02:50:21.325Z,92.29
2023-01-25T03:05:21.215Z,91.87
2023-01-25T03:20:20.975Z,92.82
2023-01-25T03:35:20.817Z,92.35
2023-01-25T03:50:20.692Z,91.83
2023-01-25T04:05:20.546Z,92.82
2023-01-25T04:20:20.679Z,92.77
2023-01-25T04:35:20.255Z,92.46
2023-01-25T04:50:20.118Z,93.98
2023-01-25T05:05:19.974Z,92.94
2023-01-25T05:20:19.837Z,93.10
2023-01-25T05:35:19.680Z,93.52
2023-01-25T05:50:19.525Z,93.31
2023-01-25T06:05:19.400Z,93.73
2023-01-25T06:20:19.252Z,93.73
2023-01-25T06:35:19.107Z,94.25
2023-01-25T06:50:18.966Z,93.73
2023-01-25T07:05:18.818Z,93.88
2023-01-25T07:20:18.677Z,94.19
2023-01-25T07:35:18.531Z,94.19
2023-01-25T07:50:18.394Z,94.19
2023-01-25T08:05:18.253Z,95.44
2023-01-25T08:20:18.103Z,96.49
2023-01-25T08:35:17.953Z,96.91
2023-01-25T08:50:17.816Z,97.32
2023-01-25T09:05:17.683Z,97.37
2023-01-25T09:20:17.651Z,98.10
2023-01-25T09:35:17.383Z,97.89
2023-01-25T09:50:17.236Z,98.10
2023-01-25T10:05:17.087Z,97.58
2023-01-25T10:20:17.007Z,97.47
2023-01-25T10:35:29.209Z,98.21
2023-01-25T10:50:16.713Z,98.41
2023-01-25T11:05:16.527Z,98.46
2023-01-25T11:20:16.378Z,98.10
2023-01-25T11:35:16.252Z,98.88
2023-01-25T11:50:16.103Z,99.56
2023-01-25T12:05:21.571Z,99.61
2023-01-25T12:20:15.816Z,99.56
2023-01-25T12:35:15.657Z,99.99
2023-01-25T12:50:15.519Z,99.99
2023-01-25T13:05:15.375Z,99.99
2023-01-25T13:20:15.230Z,99.99
2023-01-25T13:35:15.093Z,99.99
2023-01-25T13:50:14.959Z,99.99
2023-01-25T14:05:14.806Z,99.99
2023-01-25T14:20:14.667Z,99.99
2023-01-25T14:35:14.513Z,99.99
2023-01-25T14:50:14.376Z,99.99
2023-01-25T15:05:16.146Z,99.99
2023-01-25T15:20:14.089Z,99.99
2023-01-25T15:35:13.952Z,99.99
2023-01-25T15:50:14.093Z,99.99
2023-01-25T16:05:13.664Z,99.99
2023-01-25T16:20:13.564Z,99.99
2023-01-25T16:35:13.457Z,99.99
2023-01-25T16:50:13.225Z,99.99
2023-01-25T17:05:13.068Z,99.99
2023-01-25T17:20:13.081Z,99.99
2023-01-25T17:35:12.863Z,99.99
2023-01-25T17:50:13.001Z,99.99
2023-01-25T18:05:12.488Z,99.99
2023-01-25T18:20:12.443Z,99.99
2023-01-25T18:35:12.638Z,99.99
2023-01-25T18:50:12.063Z,99.99
2023-01-25T19:05:12.406Z,99.99
2023-01-25T19:20:11.833Z,99.99
2023-01-25T19:35:11.960Z,99.99
2023-01-25T19:50:11.480Z,99.99
2023-01-25T20:05:11.794Z,99.99
2023-01-25T20:20:11.177Z,99.99
2023-01-25T20:35:17.269Z,99.99
2023-01-25T20:50:10.881Z,99.99
2023-01-25T21:05:11.006Z,99.99
2023-01-25T21:20:10.578Z,99.99
2023-01-25T21:35:10.830Z,99.99
2023-01-25T21:50:10.661Z,99.99
2023-01-25T22:05:10.131Z,99.99
2023-01-25T22:20:10.355Z,99.99
2023-01-25T22:35:09.979Z,99.99
2023-01-25T22:50:10.054Z,99.99
2023-01-25T23:05:09.553Z,99.99
2023-01-25T23:20:09.929Z,99.99
2023-01-25T23:35:09.250Z,99.99
2023-01-25T23:50:09.596Z,99.99
